Portada
METAR-TAF:

METAR-TAF

Aeroports :

Fond Du Lac County Airport

Fond du Lac, Wisconsin, Estats Units d'Amèrica

latitud: 43-46-12N, longitud: 088-29-11W, altitud: 246 m

Observació

L'informe es va fer fa 58 minuts, a les 17:53 UTC
Vent 12 kt del Sud-Est amb ràfegues de 19 kt
Temperatura 27°C
Humitat 39%
Pressió 1014 hPa
Visibilitat: 16.1 km
Cel clar

METAR: KFLD 191753Z AUTO 14012G19KT 10SM CLR 27/12 A2994 RMK AO2 SLP134 T02670122 10267 20156 58015

Hora: 13:51 (18:51 UTC)


TAF: manca

Observacions i pronòstics meteorològics de més de 4000 aeroports (METAR i TAF).

Les estacions disponibles són els punts grocs i vermells al mapa.

Posi el ratolí al punt desitjat per veure el nom de l'estació.

Feu clic per veure les observacions i els pronòstics meteorològics.

Per canviar el mapa: feu clic els botons verds amb una creu de color negre per apropar; al botó verd amb un guió per allunyar la imatge; o en les fletxes verdes per a mapes adjacents.


METAR-TAF: